sensor_id;sensor_type;location;lat;lon;timestamp;pressure;altitude;pressure_sealevel;temperature;humidity
65718;BME280;52445;52.466;-1.016;2023-05-03T00:01:20;101418.44;;;7.99;68.39
65718;BME280;52445;52.466;-1.016;2023-05-03T00:03:51;101415.91;;;8.01;69.08
65718;BME280;52445;52.466;-1.016;2023-05-03T00:06:18;101414.16;;;8.00;68.62
65718;BME280;52445;52.466;-1.016;2023-05-03T00:08:45;101414.22;;;8.03;68.35
65718;BME280;52445;52.466;-1.016;2023-05-03T00:11:12;101419.38;;;8.03;69.12
65718;BME280;52445;52.466;-1.016;2023-05-03T00:13:38;101418.47;;;8.01;68.35
65718;BME280;52445;52.466;-1.016;2023-05-03T00:16:05;101422.69;;;7.98;68.03
65718;BME280;52445;52.466;-1.016;2023-05-03T00:18:32;101416.59;;;7.95;68.56
65718;BME280;52445;52.466;-1.016;2023-05-03T00:20:59;101421.66;;;7.92;68.91
65718;BME280;52445;52.466;-1.016;2023-05-03T00:23:25;101415.59;;;7.91;69.27
65718;BME280;52445;52.466;-1.016;2023-05-03T00:25:55;101417.19;;;7.86;69.61
65718;BME280;52445;52.466;-1.016;2023-05-03T00:28:22;101423.97;;;7.82;69.05
65718;BME280;52445;52.466;-1.016;2023-05-03T00:30:49;101418.75;;;7.81;69.48
65718;BME280;52445;52.466;-1.016;2023-05-03T00:33:16;101411.84;;;7.80;68.88
65718;BME280;52445;52.466;-1.016;2023-05-03T00:35:43;101404.81;;;7.76;68.01
65718;BME280;52445;52.466;-1.016;2023-05-03T00:38:10;101402.97;;;7.71;68.29
65718;BME280;52445;52.466;-1.016;2023-05-03T00:40:37;101399.28;;;7.63;68.79
65718;BME280;52445;52.466;-1.016;2023-05-03T00:43:04;101399.00;;;7.54;69.31
65718;BME280;52445;52.466;-1.016;2023-05-03T00:45:33;101395.44;;;7.50;69.82
65718;BME280;52445;52.466;-1.016;2023-05-03T00:48:00;101401.31;;;7.46;69.57
65718;BME280;52445;52.466;-1.016;2023-05-03T00:50:28;101403.84;;;7.44;68.61
65718;BME280;52445;52.466;-1.016;2023-05-03T00:52:55;101402.94;;;7.42;69.12
65718;BME280;52445;52.466;-1.016;2023-05-03T00:55:22;101391.81;;;7.43;69.32
65718;BME280;52445;52.466;-1.016;2023-05-03T00:57:51;101404.75;;;7.45;69.06
65718;BME280;52445;52.466;-1.016;2023-05-03T01:00:18;101404.78;;;7.46;68.97
65718;BME280;52445;52.466;-1.016;2023-05-03T01:02:46;101400.56;;;7.49;68.12
65718;BME280;52445;52.466;-1.016;2023-05-03T01:05:13;101407.47;;;7.50;68.20
65718;BME280;52445;52.466;-1.016;2023-05-03T01:10:37;101402.44;;;7.53;68.87
65718;BME280;52445;52.466;-1.016;2023-05-03T01:13:20;101405.03;;;7.54;68.54
65718;BME280;52445;52.466;-1.016;2023-05-03T01:16:11;101392.84;;;7.49;68.85
65718;BME280;52445;52.466;-1.016;2023-05-03T01:18:41;101402.00;;;7.40;69.55
65718;BME280;52445;52.466;-1.016;2023-05-03T01:21:12;101397.56;;;7.36;69.06
65718;BME280;52445;52.466;-1.016;2023-05-03T01:23:45;101403.47;;;7.32;70.10
65718;BME280;52445;52.466;-1.016;2023-05-03T01:28:54;101408.72;;;7.35;69.10
65718;BME280;52445;52.466;-1.016;2023-05-03T01:31:27;101405.31;;;7.36;68.11
65718;BME280;52445;52.466;-1.016;2023-05-03T01:36:42;101401.03;;;7.37;68.36
65718;BME280;52445;52.466;-1.016;2023-05-03T01:39:21;101411.19;;;7.32;69.30
65718;BME280;52445;52.466;-1.016;2023-05-03T01:41:50;101401.72;;;7.31;69.45
65718;BME280;52445;52.466;-1.016;2023-05-03T01:44:18;101412.88;;;7.30;69.05
65718;BME280;52445;52.466;-1.016;2023-05-03T01:46:46;101412.75;;;7.27;68.82
65718;BME280;52445;52.466;-1.016;2023-05-03T01:49:12;101410.19;;;7.27;68.26
65718;BME280;52445;52.466;-1.016;2023-05-03T01:51:39;101407.53;;;7.25;69.30
65718;BME280;52445;52.466;-1.016;2023-05-03T01:54:06;101404.91;;;7.24;68.62
65718;BME280;52445;52.466;-1.016;2023-05-03T01:56:34;101404.91;;;7.24;69.09
65718;BME280;52445;52.466;-1.016;2023-05-03T01:59:02;101396.28;;;7.22;68.20
65718;BME280;52445;52.466;-1.016;2023-05-03T02:01:29;101389.34;;;7.20;67.93
65718;BME280;52445;52.466;-1.016;2023-05-03T02:03:56;101388.44;;;7.18;68.04
65718;BME280;52445;52.466;-1.016;2023-05-03T02:06:23;101391.03;;;7.18;68.57
65718;BME280;52445;52.466;-1.016;2023-05-03T02:08:52;101387.38;;;7.13;68.25
65718;BME280;52445;52.466;-1.016;2023-05-03T02:11:20;101382.06;;;7.07;69.86
65718;BME280;52445;52.466;-1.016;2023-05-03T02:13:48;101382.88;;;7.06;68.23
65718;BME280;52445;52.466;-1.016;2023-05-03T02:16:17;101369.78;;;7.00;68.26
65718;BME280;52445;52.466;-1.016;2023-05-03T02:18:44;101368.78;;;6.94;68.67
65718;BME280;52445;52.466;-1.016;2023-05-03T02:21:10;101382.50;;;6.95;68.19
65718;BME280;52445;52.466;-1.016;2023-05-03T02:23:38;101371.25;;;6.91;69.83
65718;BME280;52445;52.466;-1.016;2023-05-03T02:26:06;101371.13;;;6.88;69.87
65718;BME280;52445;52.466;-1.016;2023-05-03T02:28:33;101373.44;;;6.80;70.41
65718;BME280;52445;52.466;-1.016;2023-05-03T02:31:00;101364.50;;;6.69;70.45
65718;BME280;52445;52.466;-1.016;2023-05-03T02:33:27;101356.38;;;6.58;70.66
65718;BME280;52445;52.466;-1.016;2023-05-03T02:35:54;101353.59;;;6.52;71.08
65718;BME280;52445;52.466;-1.016;2023-05-03T02:38:21;101352.53;;;6.47;71.88
65718;BME280;52445;52.466;-1.016;2023-05-03T02:40:48;101343.03;;;6.44;71.71
65718;BME280;52445;52.466;-1.016;2023-05-03T02:43:15;101344.56;;;6.39;70.93
65718;BME280;52445;52.466;-1.016;2023-05-03T02:45:43;101348.88;;;6.40;71.23
65718;BME280;52445;52.466;-1.016;2023-05-03T02:48:09;101341.28;;;6.43;71.18
65718;BME280;52445;52.466;-1.016;2023-05-03T02:50:37;101347.19;;;6.40;71.91
65718;BME280;52445;52.466;-1.016;2023-05-03T02:53:04;101354.09;;;6.41;71.61
65718;BME280;52445;52.466;-1.016;2023-05-03T02:55:31;101356.78;;;6.45;70.81
65718;BME280;52445;52.466;-1.016;2023-05-03T02:57:58;101352.53;;;6.47;70.67
65718;BME280;52445;52.466;-1.016;2023-05-03T03:00:24;101362.06;;;6.49;69.89
65718;BME280;52445;52.466;-1.016;2023-05-03T03:02:51;101355.34;;;6.53;70.62
65718;BME280;52445;52.466;-1.016;2023-05-03T03:05:18;101358.81;;;6.53;69.53
65718;BME280;52445;52.466;-1.016;2023-05-03T03:07:44;101369.09;;;6.53;70.05
65718;BME280;52445;52.466;-1.016;2023-05-03T03:10:11;101368.22;;;6.53;70.78
65718;BME280;52445;52.466;-1.016;2023-05-03T03:12:38;101373.38;;;6.53;69.53
65718;BME280;52445;52.466;-1.016;2023-05-03T03:15:05;101378.44;;;6.51;69.56
65718;BME280;52445;52.466;-1.016;2023-05-03T03:17:32;101375.81;;;6.50;70.92
65718;BME280;52445;52.466;-1.016;2023-05-03T03:19:59;101380.91;;;6.48;69.30
65718;BME280;52445;52.466;-1.016;2023-05-03T03:22:27;101391.88;;;6.42;69.98
65718;BME280;52445;52.466;-1.016;2023-05-03T03:24:54;101391.75;;;6.39;69.54
65718;BME280;52445;52.466;-1.016;2023-05-03T03:27:21;101383.00;;;6.34;69.10
65718;BME280;52445;52.466;-1.016;2023-05-03T03:29:49;101383.72;;;6.30;69.46
65718;BME280;52445;52.466;-1.016;2023-05-03T03:32:16;101382.81;;;6.29;68.93
65718;BME280;52445;52.466;-1.016;2023-05-03T03:34:42;101387.03;;;6.27;69.32
65718;BME280;52445;52.466;-1.016;2023-05-03T03:37:09;101386.03;;;6.24;68.83
65718;BME280;52445;52.466;-1.016;2023-05-03T03:39:36;101382.56;;;6.22;69.50
65718;BME280;52445;52.466;-1.016;2023-05-03T03:42:06;101376.47;;;6.20;69.58
65718;BME280;52445;52.466;-1.016;2023-05-03T03:44:33;101374.72;;;6.19;70.25
65718;BME280;52445;52.466;-1.016;2023-05-03T03:47:00;101372.97;;;6.17;70.27
65718;BME280;52445;52.466;-1.016;2023-05-03T03:49:27;101373.81;;;6.16;69.10
65718;BME280;52445;52.466;-1.016;2023-05-03T03:51:53;101371.09;;;6.13;69.66
65718;BME280;52445;52.466;-1.016;2023-05-03T03:54:20;101371.91;;;6.12;69.04
65718;BME280;52445;52.466;-1.016;2023-05-03T03:56:47;101365.84;;;6.10;69.23
65718;BME280;52445;52.466;-1.016;2023-05-03T03:59:13;101363.16;;;6.07;69.54
65718;BME280;52445;52.466;-1.016;2023-05-03T04:01:40;101370.81;;;6.06;69.80
65718;BME280;52445;52.466;-1.016;2023-05-03T04:04:07;101363.03;;;6.04;69.80
65718;BME280;52445;52.466;-1.016;2023-05-03T04:06:34;101353.41;;;6.00;69.43
65718;BME280;52445;52.466;-1.016;2023-05-03T04:09:00;101356.81;;;5.99;69.78
65718;BME280;52445;52.466;-1.016;2023-05-03T04:11:27;101355.00;;;5.96;69.63
65718;BME280;52445;52.466;-1.016;2023-05-03T04:13:53;101352.38;;;5.95;68.81
65718;BME280;52445;52.466;-1.016;2023-05-03T04:16:20;101343.72;;;5.92;70.26
65718;BME280;52445;52.466;-1.016;2023-05-03T04:18:47;101350.50;;;5.90;68.88
65718;BME280;52445;52.466;-1.016;2023-05-03T04:21:13;101349.56;;;5.88;69.44
65718;BME280;52445;52.466;-1.016;2023-05-03T04:23:40;101353.78;;;5.86;69.31
65718;BME280;52445;52.466;-1.016;2023-05-03T04:26:07;101351.94;;;5.82;68.93
65718;BME280;52445;52.466;-1.016;2023-05-03T04:28:49;101363.84;;;5.80;69.03
65718;BME280;52445;52.466;-1.016;2023-05-03T04:31:17;101350.06;;;5.78;69.80
65718;BME280;52445;52.466;-1.016;2023-05-03T04:33:46;101351.69;;;5.76;69.71
65718;BME280;52445;52.466;-1.016;2023-05-03T04:36:14;101355.06;;;5.75;69.09
65718;BME280;52445;52.466;-1.016;2023-05-03T04:38:41;101351.56;;;5.73;70.04
65718;BME280;52445;52.466;-1.016;2023-05-03T04:41:08;101340.34;;;5.71;69.26
65718;BME280;52445;52.466;-1.016;2023-05-03T04:43:35;101346.28;;;5.70;69.44
65718;BME280;52445;52.466;-1.016;2023-05-03T04:46:02;101336.84;;;5.69;69.36
65718;BME280;52445;52.466;-1.016;2023-05-03T04:48:30;101348.72;;;5.65;69.78
65718;BME280;52445;52.466;-1.016;2023-05-03T04:50:57;101340.94;;;5.63;69.68
65718;BME280;52445;52.466;-1.016;2023-05-03T04:53:24;101340.94;;;5.63;69.35
65718;BME280;52445;52.466;-1.016;2023-05-03T04:55:52;101342.63;;;5.63;69.36
65718;BME280;52445;52.466;-1.016;2023-05-03T04:58:18;101346.97;;;5.64;68.99
65718;BME280;52445;52.466;-1.016;2023-05-03T05:00:45;101344.31;;;5.62;68.73
65718;BME280;52445;52.466;-1.016;2023-05-03T05:03:11;101347.75;;;5.63;69.27
65718;BME280;52445;52.466;-1.016;2023-05-03T05:05:38;101345.25;;;5.64;69.11
65718;BME280;52445;52.466;-1.016;2023-05-03T05:08:06;101348.72;;;5.65;69.56
65718;BME280;52445;52.466;-1.016;2023-05-03T05:10:36;101347.88;;;5.66;69.29
65718;BME280;52445;52.466;-1.016;2023-05-03T05:13:04;101350.44;;;5.66;70.15
65718;BME280;52445;52.466;-1.016;2023-05-03T05:15:31;101345.31;;;5.66;69.51
65718;BME280;52445;52.466;-1.016;2023-05-03T05:17:58;101353.09;;;5.68;69.68
65718;BME280;52445;52.466;-1.016;2023-05-03T05:20:25;101360.09;;;5.72;70.57
65718;BME280;52445;52.466;-1.016;2023-05-03T05:22:51;101361.97;;;5.76;70.25
65718;BME280;52445;52.466;-1.016;2023-05-03T05:25:18;101363.97;;;5.83;70.20
65718;BME280;52445;52.466;-1.016;2023-05-03T05:27:45;101364.28;;;5.92;70.24
65718;BME280;52445;52.466;-1.016;2023-05-03T05:30:12;101360.53;;;6.06;70.00
65718;BME280;52445;52.466;-1.016;2023-05-03T05:32:39;101363.72;;;6.23;69.93
65718;BME280;52445;52.466;-1.016;2023-05-03T05:35:06;101363.44;;;6.39;70.51
65718;BME280;52445;52.466;-1.016;2023-05-03T05:37:33;101368.22;;;6.53;70.98
65718;BME280;52445;52.466;-1.016;2023-05-03T05:40:00;101373.13;;;6.71;69.90
65718;BME280;52445;52.466;-1.016;2023-05-03T05:42:27;101365.09;;;6.88;69.86
65718;BME280;52445;52.466;-1.016;2023-05-03T05:44:53;101375.16;;;7.06;70.75
65718;BME280;52445;52.466;-1.016;2023-05-03T05:47:20;101377.41;;;7.23;71.38
65718;BME280;52445;52.466;-1.016;2023-05-03T05:49:47;101376.22;;;7.40;71.49
65718;BME280;52445;52.466;-1.016;2023-05-03T05:52:14;101377.38;;;7.50;70.87
65718;BME280;52445;52.466;-1.016;2023-05-03T05:54:40;101381.69;;;7.50;69.60
65718;BME280;52445;52.466;-1.016;2023-05-03T05:57:07;101378.06;;;7.44;68.96
65718;BME280;52445;52.466;-1.016;2023-05-03T05:59:34;101384.78;;;7.39;68.70
65718;BME280;52445;52.466;-1.016;2023-05-03T06:02:00;101389.78;;;7.35;69.27
65718;BME280;52445;52.466;-1.016;2023-05-03T06:04:27;101382.84;;;7.32;68.22
65718;BME280;52445;52.466;-1.016;2023-05-03T06:06:54;101382.84;;;7.32;69.75
65718;BME280;52445;52.466;-1.016;2023-05-03T06:09:21;101382.00;;;7.31;69.52
65718;BME280;52445;52.466;-1.016;2023-05-03T06:11:50;101381.94;;;7.30;69.78
65718;BME280;52445;52.466;-1.016;2023-05-03T06:14:16;101383.69;;;7.31;69.40
65718;BME280;52445;52.466;-1.016;2023-05-03T06:16:45;101386.25;;;7.31;69.23
65718;BME280;52445;52.466;-1.016;2023-05-03T06:19:11;101391.31;;;7.28;70.10
65718;BME280;52445;52.466;-1.016;2023-05-03T06:21:38;101385.31;;;7.29;69.57
65718;BME280;52445;52.466;-1.016;2023-05-03T06:24:05;101384.69;;;7.36;69.80
65718;BME280;52445;52.466;-1.016;2023-05-03T06:26:31;101384.91;;;7.42;69.94
65718;BME280;52445;52.466;-1.016;2023-05-03T06:28:58;101391.00;;;7.74;69.68
65718;BME280;52445;52.466;-1.016;2023-05-03T06:31:26;101396.53;;;8.15;69.44
65718;BME280;52445;52.466;-1.016;2023-05-03T06:33:53;101396.09;;;8.59;70.73
65718;BME280;52445;52.466;-1.016;2023-05-03T06:36:19;101398.75;;;8.96;69.44
65718;BME280;52445;52.466;-1.016;2023-05-03T06:38:46;101397.00;;;9.31;69.21
65718;BME280;52445;52.466;-1.016;2023-05-03T06:41:12;101399.53;;;9.66;69.02
65718;BME280;52445;52.466;-1.016;2023-05-03T06:43:39;101404.59;;;10.00;68.79
65718;BME280;52445;52.466;-1.016;2023-05-03T06:46:06;101402.63;;;10.29;68.02
65718;BME280;52445;52.466;-1.016;2023-05-03T06:48:32;101391.16;;;10.60;68.05
65718;BME280;52445;52.466;-1.016;2023-05-03T06:50:59;101394.31;;;10.91;67.19
65718;BME280;52445;52.466;-1.016;2023-05-03T06:53:26;101388.72;;;11.20;66.46
65718;BME280;52445;52.466;-1.016;2023-05-03T06:55:54;101389.09;;;11.45;66.98
65718;BME280;52445;52.466;-1.016;2023-05-03T06:58:21;101393.56;;;11.55;64.94
65718;BME280;52445;52.466;-1.016;2023-05-03T07:00:51;101391.94;;;11.62;64.21
65718;BME280;52445;52.466;-1.016;2023-05-03T07:03:18;101384.31;;;11.72;64.69
65718;BME280;52445;52.466;-1.016;2023-05-03T07:05:45;101384.66;;;11.98;64.00
65718;BME280;52445;52.466;-1.016;2023-05-03T07:08:12;101388.09;;;11.97;62.04
65718;BME280;52445;52.466;-1.016;2023-05-03T07:10:39;101387.16;;;11.90;61.47
65718;BME280;52445;52.466;-1.016;2023-05-03T07:13:07;101382.75;;;11.85;61.64
65718;BME280;52445;52.466;-1.016;2023-05-03T07:15:33;101376.31;;;11.56;61.69
65718;BME280;52445;52.466;-1.016;2023-05-03T07:18:00;101377.38;;;11.72;62.19
65718;BME280;52445;52.466;-1.016;2023-05-03T07:20:27;101374.16;;;11.89;61.88
65718;BME280;52445;52.466;-1.016;2023-05-03T07:22:53;101370.81;;;11.99;61.88
65718;BME280;52445;52.466;-1.016;2023-05-03T07:25:20;101372.81;;;12.19;62.11
65718;BME280;52445;52.466;-1.016;2023-05-03T07:27:47;101374.91;;;12.51;61.42
65718;BME280;52445;52.466;-1.016;2023-05-03T07:30:13;101368.22;;;12.77;61.13
65718;BME280;52445;52.466;-1.016;2023-05-03T07:32:40;101377.13;;;13.02;59.72
65718;BME280;52445;52.466;-1.016;2023-05-03T07:35:07;101368.53;;;13.13;59.92
65718;BME280;52445;52.466;-1.016;2023-05-03T07:37:34;101366.84;;;13.18;60.18
65718;BME280;52445;52.466;-1.016;2023-05-03T07:40:01;101370.34;;;13.26;59.38
65718;BME280;52445;52.466;-1.016;2023-05-03T07:42:30;101367.81;;;13.31;58.78
65718;BME280;52445;52.466;-1.016;2023-05-03T07:44:58;101375.69;;;13.42;58.61
65718;BME280;52445;52.466;-1.016;2023-05-03T07:47:25;101376.47;;;13.28;58.07
65718;BME280;52445;52.466;-1.016;2023-05-03T07:49:53;101371.34;;;13.41;58.52
65718;BME280;52445;52.466;-1.016;2023-05-03T07:52:20;101382.53;;;13.30;57.41
65718;BME280;52445;52.466;-1.016;2023-05-03T07:54:46;101376.34;;;13.17;56.84
65718;BME280;52445;52.466;-1.016;2023-05-03T07:57:13;101378.91;;;13.09;56.24
65718;BME280;52445;52.466;-1.016;2023-05-03T07:59:41;101372.72;;;12.95;56.14
65718;BME280;52445;52.466;-1.016;2023-05-03T08:02:08;101371.84;;;12.96;57.00
65718;BME280;52445;52.466;-1.016;2023-05-03T08:04:35;101373.88;;;13.34;57.38
65718;BME280;52445;52.466;-1.016;2023-05-03T08:07:02;101373.84;;;13.31;56.33
65718;BME280;52445;52.466;-1.016;2023-05-03T08:09:29;101358.44;;;13.55;56.41
65718;BME280;52445;52.466;-1.016;2023-05-03T08:11:56;101359.31;;;13.57;55.67
65718;BME280;52445;52.466;-1.016;2023-05-03T08:14:23;101358.50;;;13.66;55.84
65718;BME280;52445;52.466;-1.016;2023-05-03T08:16:49;101357.63;;;13.68;55.30
65718;BME280;52445;52.466;-1.016;2023-05-03T08:19:16;101348.13;;;13.78;56.16
65718;BME280;52445;52.466;-1.016;2023-05-03T08:21:43;101350.88;;;14.03;54.57
65718;BME280;52445;52.466;-1.016;2023-05-03T08:24:12;101344.75;;;13.98;54.08
65718;BME280;52445;52.466;-1.016;2023-05-03T08:26:41;101350.00;;;14.04;53.66
65718;BME280;52445;52.466;-1.016;2023-05-03T08:29:09;101352.63;;;14.12;53.73
65718;BME280;52445;52.466;-1.016;2023-05-03T08:31:36;101347.47;;;14.24;54.24
65718;BME280;52445;52.466;-1.016;2023-05-03T08:34:03;101341.41;;;14.39;53.65
65718;BME280;52445;52.466;-1.016;2023-05-03T08:36:30;101344.91;;;14.63;53.51
65718;BME280;52445;52.466;-1.016;2023-05-03T08:38:57;101337.13;;;14.71;53.03
65718;BME280;52445;52.466;-1.016;2023-05-03T08:44:00;101349.31;;;14.94;52.08
65718;BME280;52445;52.466;-1.016;2023-05-03T08:46:29;101338.88;;;14.86;52.83
65718;BME280;52445;52.466;-1.016;2023-05-03T08:48:57;101344.97;;;14.95;52.72
65718;BME280;52445;52.466;-1.016;2023-05-03T08:51:25;101338.88;;;15.21;51.22
65718;BME280;52445;52.466;-1.016;2023-05-03T08:53:53;101348.41;;;15.50;52.11
65718;BME280;52445;52.466;-1.016;2023-05-03T08:56:28;101338.75;;;15.75;51.61
65718;BME280;52445;52.466;-1.016;2023-05-03T08:58:55;101344.81;;;15.73;50.33
65718;BME280;52445;52.466;-1.016;2023-05-03T09:01:23;101348.25;;;15.84;52.02
65718;BME280;52445;52.466;-1.016;2023-05-03T09:03:50;101344.75;;;15.93;51.50
65718;BME280;52445;52.466;-1.016;2023-05-03T09:06:22;101345.66;;;15.95;51.40
65718;BME280;52445;52.466;-1.016;2023-05-03T09:08:52;101349.94;;;16.13;51.47
65718;BME280;52445;52.466;-1.016;2023-05-03T09:11:21;101348.97;;;16.28;50.70
65718;BME280;52445;52.466;-1.016;2023-05-03T09:13:50;101348.13;;;16.22;49.72
65718;BME280;52445;52.466;-1.016;2023-05-03T09:16:22;101346.41;;;16.21;50.40
65718;BME280;52445;52.466;-1.016;2023-05-03T09:19:06;101351.53;;;16.39;50.67
65718;BME280;52445;52.466;-1.016;2023-05-03T09:21:35;101352.47;;;16.29;49.38
65718;BME280;52445;52.466;-1.016;2023-05-03T09:24:10;101351.47;;;16.47;49.83
65718;BME280;52445;52.466;-1.016;2023-05-03T09:26:38;101349.56;;;16.73;50.25
65718;BME280;52445;52.466;-1.016;2023-05-03T09:29:07;101345.91;;;16.92;49.77
65718;BME280;52445;52.466;-1.016;2023-05-03T09:31:35;101344.91;;;17.09;48.36
65718;BME280;52445;52.466;-1.016;2023-05-03T09:34:20;101347.53;;;17.09;47.91
65718;BME280;52445;52.466;-1.016;2023-05-03T09:36:47;101343.94;;;17.23;48.86
65718;BME280;52445;52.466;-1.016;2023-05-03T09:39:16;101338.59;;;17.30;48.57
65718;BME280;52445;52.466;-1.016;2023-05-03T09:41:43;101348.41;;;17.11;49.33
65718;BME280;52445;52.466;-1.016;2023-05-03T09:44:10;101345.91;;;16.94;48.46
65718;BME280;52445;52.466;-1.016;2023-05-03T09:46:37;101347.59;;;17.06;48.82
65718;BME280;52445;52.466;-1.016;2023-05-03T09:49:04;101338.75;;;17.16;48.45
65718;BME280;52445;52.466;-1.016;2023-05-03T09:51:31;101336.94;;;17.25;49.28
65718;BME280;52445;52.466;-1.016;2023-05-03T09:53:59;101347.09;;;17.56;49.10
65718;BME280;52445;52.466;-1.016;2023-05-03T09:56:26;101334.63;;;17.77;48.21
65718;BME280;52445;52.466;-1.016;2023-05-03T09:58:54;101327.47;;;17.88;47.96
65718;BME280;52445;52.466;-1.016;2023-05-03T10:01:23;101341.22;;;18.06;47.76
65718;BME280;52445;52.466;-1.016;2023-05-03T10:03:50;101344.69;;;18.08;45.57
65718;BME280;52445;52.466;-1.016;2023-05-03T10:09:17;101349.84;;;18.17;45.46
65718;BME280;52445;52.466;-1.016;2023-05-03T10:11:48;101351.47;;;18.28;46.67
65718;BME280;52445;52.466;-1.016;2023-05-03T10:14:15;101347.81;;;18.38;46.60
65718;BME280;52445;52.466;-1.016;2023-05-03T10:16:47;101334.63;;;18.41;45.92
65718;BME280;52445;52.466;-1.016;2023-05-03T10:19:20;101337.19;;;18.47;46.50
65718;BME280;52445;52.466;-1.016;2023-05-03T10:24:27;101331.78;;;17.95;46.46
65718;BME280;52445;52.466;-1.016;2023-05-03T10:26:54;101338.72;;;17.96;46.98
65718;BME280;52445;52.466;-1.016;2023-05-03T10:35:06;101322.59;;;17.60;46.83
65718;BME280;52445;52.466;-1.016;2023-05-03T10:37:35;101324.38;;;17.53;46.72
65718;BME280;52445;52.466;-1.016;2023-05-03T10:40:06;101325.50;;;17.30;46.69
65718;BME280;52445;52.466;-1.016;2023-05-03T10:42:36;101325.59;;;17.23;46.73
65718;BME280;52445;52.466;-1.016;2023-05-03T10:45:04;101318.63;;;17.25;47.08
65718;BME280;52445;52.466;-1.016;2023-05-03T10:47:34;101309.13;;;17.13;45.92
65718;BME280;52445;52.466;-1.016;2023-05-03T10:50:24;101312.53;;;17.19;46.98
65718;BME280;52445;52.466;-1.016;2023-05-03T10:52:51;101324.06;;;16.93;46.83
65718;BME280;52445;52.466;-1.016;2023-05-03T10:55:20;101305.31;;;16.41;47.65
65718;BME280;52445;52.466;-1.016;2023-05-03T10:57:48;101309.72;;;16.36;47.84
65718;BME280;52445;52.466;-1.016;2023-05-03T11:05:48;101298.94;;;16.77;46.68
65718;BME280;52445;52.466;-1.016;2023-05-03T11:08:18;101297.09;;;16.88;47.48
65718;BME280;52445;52.466;-1.016;2023-05-03T11:10:46;101295.22;;;17.06;46.32
65718;BME280;52445;52.466;-1.016;2023-05-03T11:13:13;101297.56;;;17.34;47.30
65718;BME280;52445;52.466;-1.016;2023-05-03T11:15:40;101292.97;;;17.52;46.96
65718;BME280;52445;52.466;-1.016;2023-05-03T11:18:09;101285.84;;;17.63;46.51
65718;BME280;52445;52.466;-1.016;2023-05-03T11:20:37;101289.47;;;17.56;44.97
65718;BME280;52445;52.466;-1.016;2023-05-03T11:23:05;101282.16;;;17.06;45.59
65718;BME280;52445;52.466;-1.016;2023-05-03T11:25:33;101265.56;;;17.01;45.74
65718;BME280;52445;52.466;-1.016;2023-05-03T11:28:00;101269.31;;;16.75;46.83
65718;BME280;52445;52.466;-1.016;2023-05-03T11:30:28;101267.81;;;16.42;46.49
65718;BME280;52445;52.466;-1.016;2023-05-03T11:32:55;101272.06;;;16.59;46.69
65718;BME280;52445;52.466;-1.016;2023-05-03T11:35:22;101266.09;;;16.38;46.94
65718;BME280;52445;52.466;-1.016;2023-05-03T11:37:52;101249.56;;;16.38;46.26
65718;BME280;52445;52.466;-1.016;2023-05-03T11:40:19;101244.28;;;16.41;47.88
65718;BME280;52445;52.466;-1.016;2023-05-03T11:42:55;101248.47;;;16.65;47.50
65718;BME280;52445;52.466;-1.016;2023-05-03T11:45:26;101237.94;;;16.72;45.97
65718;BME280;52445;52.466;-1.016;2023-05-03T11:47:55;101241.69;;;16.42;45.92
65718;BME280;52445;52.466;-1.016;2023-05-03T11:50:43;101230.28;;;16.50;45.88
65718;BME280;52445;52.466;-1.016;2023-05-03T11:53:12;101234.53;;;16.66;46.59
65718;BME280;52445;52.466;-1.016;2023-05-03T11:55:41;101236.13;;;16.81;48.22
65718;BME280;52445;52.466;-1.016;2023-05-03T11:58:12;101230.91;;;16.77;46.67
65718;BME280;52445;52.466;-1.016;2023-05-03T12:00:42;101235.38;;;16.67;46.55
65718;BME280;52445;52.466;-1.016;2023-05-03T12:03:15;101233.78;;;16.49;47.41
65718;BME280;52445;52.466;-1.016;2023-05-03T12:05:43;101227.50;;;16.68;47.03
65718;BME280;52445;52.466;-1.016;2023-05-03T12:08:11;101223.91;;;16.82;46.28
65718;BME280;52445;52.466;-1.016;2023-05-03T12:10:41;101222.13;;;16.84;46.36
65718;BME280;52445;52.466;-1.016;2023-05-03T12:13:08;101223.16;;;16.69;46.15
65718;BME280;52445;52.466;-1.016;2023-05-03T12:15:38;101209.63;;;16.18;46.26
65718;BME280;52445;52.466;-1.016;2023-05-03T12:18:08;101205.41;;;15.99;46.79
65718;BME280;52445;52.466;-1.016;2023-05-03T12:20:37;101212.38;;;15.93;48.18
65718;BME280;52445;52.466;-1.016;2023-05-03T12:23:07;101204.50;;;16.03;48.64
65718;BME280;52445;52.466;-1.016;2023-05-03T12:25:36;101198.34;;;16.10;46.87
65718;BME280;52445;52.466;-1.016;2023-05-03T12:28:05;101194.81;;;16.17;46.91
65718;BME280;52445;52.466;-1.016;2023-05-03T12:30:46;101183.44;;;16.25;46.93
65718;BME280;52445;52.466;-1.016;2023-05-03T12:33:12;101201.75;;;16.22;47.29
65718;BME280;52445;52.466;-1.016;2023-05-03T12:35:42;101183.66;;;15.97;48.25
65718;BME280;52445;52.466;-1.016;2023-05-03T12:38:13;101180.16;;;16.01;47.36
65718;BME280;52445;52.466;-1.016;2023-05-03T12:40:42;101178.44;;;15.89;47.78
65718;BME280;52445;52.466;-1.016;2023-05-03T12:43:11;101173.22;;;15.86;48.15
65718;BME280;52445;52.466;-1.016;2023-05-03T12:45:37;101170.69;;;15.78;48.75
65718;BME280;52445;52.466;-1.016;2023-05-03T12:48:06;101177.47;;;16.07;48.52
65718;BME280;52445;52.466;-1.016;2023-05-03T12:50:33;101166.13;;;16.10;47.78
65718;BME280;52445;52.466;-1.016;2023-05-03T12:53:02;101156.41;;;16.29;47.15
65718;BME280;52445;52.466;-1.016;2023-05-03T12:55:34;101164.16;;;16.35;47.69
65718;BME280;52445;52.466;-1.016;2023-05-03T12:58:09;101154.88;;;16.01;46.82
65718;BME280;52445;52.466;-1.016;2023-05-03T13:00:38;101153.13;;;16.05;47.79
65718;BME280;52445;52.466;-1.016;2023-05-03T13:03:25;101148.78;;;16.02;48.63
65718;BME280;52445;52.466;-1.016;2023-05-03T13:05:58;101160.03;;;16.12;48.97
65718;BME280;52445;52.466;-1.016;2023-05-03T13:08:26;101150.59;;;15.86;48.41
65718;BME280;52445;52.466;-1.016;2023-05-03T13:11:00;101151.53;;;15.73;48.22
65718;BME280;52445;52.466;-1.016;2023-05-03T13:13:27;101161.97;;;15.77;48.48
65718;BME280;52445;52.466;-1.016;2023-05-03T13:15:53;101139.28;;;15.86;48.40
65718;BME280;52445;52.466;-1.016;2023-05-03T13:18:20;101148.91;;;15.76;47.94